sensor_id;sensor_type;location;lat;lon;timestamp;pressure;altitude;pressure_sealevel;temperature;humidity
29433;BME280;16405;53.964;13.448;2023-03-16T00:00:48;101412.25;;;-0.09;95.62
29433;BME280;16405;53.964;13.448;2023-03-16T00:03:18;101412.25;;;-0.11;95.43
29433;BME280;16405;53.964;13.448;2023-03-16T00:05:50;101414.84;;;-0.09;95.76
29433;BME280;16405;53.964;13.448;2023-03-16T00:08:22;101424.34;;;-0.10;95.33
29433;BME280;16405;53.964;13.448;2023-03-16T00:10:49;101413.97;;;-0.11;95.37
29433;BME280;16405;53.964;13.448;2023-03-16T00:13:17;101413.13;;;-0.07;95.38
29433;BME280;16405;53.964;13.448;2023-03-16T00:16:09;101409.66;;;-0.09;95.14
29433;BME280;16405;53.964;13.448;2023-03-16T00:18:46;101409.66;;;-0.12;95.29
29433;BME280;16405;53.964;13.448;2023-03-16T00:21:13;101412.25;;;-0.12;95.48
29433;BME280;16405;53.964;13.448;2023-03-16T00:23:39;101416.56;;;-0.13;95.37
29433;BME280;16405;53.964;13.448;2023-03-16T00:26:08;101413.09;;;-0.12;95.25
29433;BME280;16405;53.964;13.448;2023-03-16T00:28:43;101412.25;;;-0.11;95.30
29433;BME280;16405;53.964;13.448;2023-03-16T00:31:11;101407.91;;;-0.13;95.60
29433;BME280;16405;53.964;13.448;2023-03-16T00:33:47;101409.66;;;-0.12;95.61
29433;BME280;16405;53.964;13.448;2023-03-16T00:36:12;101410.50;;;-0.12;95.44
29433;BME280;16405;53.964;13.448;2023-03-16T00:38:40;101408.81;;;-0.08;95.89
29433;BME280;16405;53.964;13.448;2023-03-16T00:41:13;101412.28;;;-0.06;96.08
29433;BME280;16405;53.964;13.448;2023-03-16T00:43:41;101420.06;;;-0.05;96.21
29433;BME280;16405;53.964;13.448;2023-03-16T00:46:19;101430.44;;;-0.03;96.40
29433;BME280;16405;53.964;13.448;2023-03-16T00:48:51;101420.06;;;-0.03;96.12
29433;BME280;16405;53.964;13.448;2023-03-16T00:51:20;101421.78;;;-0.05;96.23
29433;BME280;16405;53.964;13.448;2023-03-16T00:53:48;101425.22;;;-0.05;95.99
29433;BME280;16405;53.964;13.448;2023-03-16T00:56:14;101426.09;;;-0.06;95.84
29433;BME280;16405;53.964;13.448;2023-03-16T00:58:42;101434.72;;;-0.05;96.13
29433;BME280;16405;53.964;13.448;2023-03-16T01:01:18;101442.47;;;-0.08;96.12
29433;BME280;16405;53.964;13.448;2023-03-16T01:03:45;101436.41;;;-0.10;96.27
29433;BME280;16405;53.964;13.448;2023-03-16T01:06:16;101435.50;;;-0.14;96.20
29433;BME280;16405;53.964;13.448;2023-03-16T01:08:42;101439.84;;;-0.11;96.76
29433;BME280;16405;53.964;13.448;2023-03-16T01:11:15;101444.19;;;-0.09;96.62
29433;BME280;16405;53.964;13.448;2023-03-16T01:13:46;101447.66;;;-0.07;96.63
29433;BME280;16405;53.964;13.448;2023-03-16T01:16:14;101447.66;;;-0.05;96.67
29433;BME280;16405;53.964;13.448;2023-03-16T01:18:48;101445.09;;;-0.05;96.28
29433;BME280;16405;53.964;13.448;2023-03-16T01:21:14;101440.78;;;-0.06;96.72
29433;BME280;16405;53.964;13.448;2023-03-16T01:23:40;101444.25;;;-0.04;96.77
29433;BME280;16405;53.964;13.448;2023-03-16T01:26:09;101449.44;;;-0.01;96.34
29433;BME280;16405;53.964;13.448;2023-03-16T01:28:42;101452.94;;;0.06;96.77
29433;BME280;16405;53.964;13.448;2023-03-16T01:31:11;101443.50;;;0.12;96.84
29433;BME280;16405;53.964;13.448;2023-03-16T01:33:44;101440.06;;;0.15;96.43
29433;BME280;16405;53.964;13.448;2023-03-16T01:36:13;101441.78;;;0.14;96.32
29433;BME280;16405;53.964;13.448;2023-03-16T01:38:48;101434.06;;;0.17;96.42
29433;BME280;16405;53.964;13.448;2023-03-16T01:41:16;101438.41;;;0.23;96.21
29433;BME280;16405;53.964;13.448;2023-03-16T01:43:45;101434.13;;;0.30;96.06
29433;BME280;16405;53.964;13.448;2023-03-16T01:46:24;101431.63;;;0.39;96.42
29433;BME280;16405;53.964;13.448;2023-03-16T01:49:06;101439.44;;;0.48;95.94
29433;BME280;16405;53.964;13.448;2023-03-16T01:52:08;101441.19;;;0.55;96.03
29433;BME280;16405;53.964;13.448;2023-03-16T01:54:57;101441.25;;;0.61;95.73
29433;BME280;16405;53.964;13.448;2023-03-16T01:57:32;101439.53;;;0.67;95.20
29433;BME280;16405;53.964;13.448;2023-03-16T02:02:54;101442.19;;;0.76;94.58
29433;BME280;16405;53.964;13.448;2023-03-16T02:05:32;101442.19;;;0.76;94.23
29433;BME280;16405;53.964;13.448;2023-03-16T02:08:10;101440.44;;;0.72;94.27
29433;BME280;16405;53.964;13.448;2023-03-16T02:10:40;101436.09;;;0.66;94.11
29433;BME280;16405;53.964;13.448;2023-03-16T02:13:08;101436.06;;;0.61;93.60
29433;BME280;16405;53.964;13.448;2023-03-16T02:15:37;101435.19;;;0.59;94.32
29433;BME280;16405;53.964;13.448;2023-03-16T02:18:04;101441.25;;;0.58;94.33
29433;BME280;16405;53.964;13.448;2023-03-16T02:21:12;101447.31;;;0.60;94.25
29433;BME280;16405;53.964;13.448;2023-03-16T02:23:41;101458.53;;;0.61;94.21
29433;BME280;16405;53.964;13.448;2023-03-16T02:31:21;101446.28;;;0.37;94.37
29433;BME280;16405;53.964;13.448;2023-03-16T02:33:48;101448.84;;;0.34;94.15
29433;BME280;16405;53.964;13.448;2023-03-16T02:36:23;101459.16;;;0.29;94.48
29433;BME280;16405;53.964;13.448;2023-03-16T02:38:49;101455.69;;;0.26;94.71
29433;BME280;16405;53.964;13.448;2023-03-16T02:41:19;101465.16;;;0.20;94.85
29433;BME280;16405;53.964;13.448;2023-03-16T02:44:06;101478.97;;;0.19;94.83
29433;BME280;16405;53.964;13.448;2023-03-16T02:46:36;101475.44;;;0.14;94.93
29433;BME280;16405;53.964;13.448;2023-03-16T02:51:38;101485.78;;;0.10;95.94
29433;BME280;16405;53.964;13.448;2023-03-16T02:54:03;101479.75;;;0.09;95.50
29433;BME280;16405;53.964;13.448;2023-03-16T02:56:30;101482.28;;;0.06;95.96
29433;BME280;16405;53.964;13.448;2023-03-16T02:58:56;101487.47;;;0.06;96.02
29433;BME280;16405;53.964;13.448;2023-03-16T03:01:30;101485.72;;;0.04;95.96
29433;BME280;16405;53.964;13.448;2023-03-16T03:03:57;101489.16;;;0.01;96.44
29433;BME280;16405;53.964;13.448;2023-03-16T03:06:23;101480.53;;;0.02;96.15
29433;BME280;16405;53.964;13.448;2023-03-16T03:09:16;101490.84;;;-0.03;96.21
29433;BME280;16405;53.964;13.448;2023-03-16T03:11:43;101493.38;;;-0.07;96.21
29433;BME280;16405;53.964;13.448;2023-03-16T03:14:10;101489.94;;;-0.08;95.95
29433;BME280;16405;53.964;13.448;2023-03-16T03:16:43;101498.50;;;-0.13;96.38
29433;BME280;16405;53.964;13.448;2023-03-16T03:19:11;101501.97;;;-0.14;96.20
29433;BME280;16405;53.964;13.448;2023-03-16T03:21:41;101512.25;;;-0.17;96.25
29433;BME280;16405;53.964;13.448;2023-03-16T03:24:09;101511.38;;;-0.21;96.68
29433;BME280;16405;53.964;13.448;2023-03-16T03:26:35;101507.88;;;-0.25;96.69
29433;BME280;16405;53.964;13.448;2023-03-16T03:29:03;101517.41;;;-0.24;97.14
29433;BME280;16405;53.964;13.448;2023-03-16T03:31:31;101519.13;;;-0.23;96.68
29433;BME280;16405;53.964;13.448;2023-03-16T03:34:00;101528.72;;;-0.14;96.96
29433;BME280;16405;53.964;13.448;2023-03-16T03:36:32;101537.44;;;-0.04;96.53
29433;BME280;16405;53.964;13.448;2023-03-16T03:39:01;101545.28;;;0.04;96.34
29433;BME280;16405;53.964;13.448;2023-03-16T03:41:30;101541.03;;;0.10;96.50
29433;BME280;16405;53.964;13.448;2023-03-16T03:43:58;101535.84;;;0.10;96.24
29433;BME280;16405;53.964;13.448;2023-03-16T03:46:25;101549.63;;;0.06;95.79
29433;BME280;16405;53.964;13.448;2023-03-16T03:49:00;101545.25;;;0.01;96.04
29433;BME280;16405;53.964;13.448;2023-03-16T03:51:34;101550.31;;;-0.12;95.75
29433;BME280;16405;53.964;13.448;2023-03-16T03:54:00;101548.47;;;-0.21;95.65
29433;BME280;16405;53.964;13.448;2023-03-16T03:56:26;101554.44;;;-0.26;95.70
29433;BME280;16405;53.964;13.448;2023-03-16T03:58:52;101557.00;;;-0.31;95.53
29433;BME280;16405;53.964;13.448;2023-03-16T04:01:18;101560.41;;;-0.35;95.58
29433;BME280;16405;53.964;13.448;2023-03-16T04:03:44;101569.84;;;-0.40;95.47
29433;BME280;16405;53.964;13.448;2023-03-16T04:06:14;101563.69;;;-0.48;95.71
29433;BME280;16405;53.964;13.448;2023-03-16T04:08:41;101561.88;;;-0.55;95.70
29433;BME280;16405;53.964;13.448;2023-03-16T04:11:07;101570.41;;;-0.64;95.64
29433;BME280;16405;53.964;13.448;2023-03-16T04:13:32;101559.97;;;-0.70;96.12
29433;BME280;16405;53.964;13.448;2023-03-16T04:16:08;101567.69;;;-0.73;96.66
29433;BME280;16405;53.964;13.448;2023-03-16T04:18:33;101566.78;;;-0.77;97.05
29433;BME280;16405;53.964;13.448;2023-03-16T04:21:16;101575.34;;;-0.81;97.25
29433;BME280;16405;53.964;13.448;2023-03-16T04:23:43;101564.97;;;-0.84;98.08
29433;BME280;16405;53.964;13.448;2023-03-16T04:26:11;101577.84;;;-0.87;97.63
29433;BME280;16405;53.964;13.448;2023-03-16T04:28:40;101573.50;;;-0.90;97.90
29433;BME280;16405;53.964;13.448;2023-03-16T04:31:08;101565.69;;;-0.94;97.65
29433;BME280;16405;53.964;13.448;2023-03-16T04:33:36;101568.22;;;-0.97;98.01
29433;BME280;16405;53.964;13.448;2023-03-16T04:36:11;101566.44;;;-1.00;97.91
29433;BME280;16405;53.964;13.448;2023-03-16T04:38:37;101572.41;;;-1.04;97.93
29433;BME280;16405;53.964;13.448;2023-03-16T04:41:05;101584.50;;;-1.05;97.94
29433;BME280;16405;53.964;13.448;2023-03-16T04:43:34;101583.59;;;-1.07;97.61
29433;BME280;16405;53.964;13.448;2023-03-16T04:46:01;101598.16;;;-1.12;97.86
29433;BME280;16405;53.964;13.448;2023-03-16T04:48:29;101586.88;;;-1.18;98.03
29433;BME280;16405;53.964;13.448;2023-03-16T04:51:00;101597.16;;;-1.21;98.06
29433;BME280;16405;53.964;13.448;2023-03-16T04:53:30;101598.75;;;-1.28;97.57
29433;BME280;16405;53.964;13.448;2023-03-16T04:55:57;101596.06;;;-1.34;98.06
29433;BME280;16405;53.964;13.448;2023-03-16T04:58:23;101597.72;;;-1.39;97.08
29433;BME280;16405;53.964;13.448;2023-03-16T05:00:53;101603.69;;;-1.43;97.66
29433;BME280;16405;53.964;13.448;2023-03-16T05:03:22;101603.66;;;-1.45;97.54
29433;BME280;16405;53.964;13.448;2023-03-16T05:05:49;101607.03;;;-1.49;97.82
29433;BME280;16405;53.964;13.448;2023-03-16T05:08:15;101611.31;;;-1.50;98.10
29433;BME280;16405;53.964;13.448;2023-03-16T05:10:45;101612.19;;;-1.51;98.25
29433;BME280;16405;53.964;13.448;2023-03-16T05:13:12;101610.44;;;-1.53;97.84
29433;BME280;16405;53.964;13.448;2023-03-16T05:15:41;101619.88;;;-1.54;98.64
29433;BME280;16405;53.964;13.448;2023-03-16T05:18:07;101616.47;;;-1.53;98.30
29433;BME280;16405;53.964;13.448;2023-03-16T05:20:33;101612.16;;;-1.52;98.46
29433;BME280;16405;53.964;13.448;2023-03-16T05:22:59;101621.63;;;-1.53;98.67
29433;BME280;16405;53.964;13.448;2023-03-16T05:25:25;101615.59;;;-1.53;98.75
29433;BME280;16405;53.964;13.448;2023-03-16T05:27:52;101616.41;;;-1.54;98.73
29433;BME280;16405;53.964;13.448;2023-03-16T05:30:21;101616.41;;;-1.54;98.87
29433;BME280;16405;53.964;13.448;2023-03-16T05:32:47;101627.66;;;-1.52;98.51
29433;BME280;16405;53.964;13.448;2023-03-16T05:35:13;101619.94;;;-1.51;98.29
29433;BME280;16405;53.964;13.448;2023-03-16T05:37:42;101632.06;;;-1.47;98.27
29433;BME280;16405;53.964;13.448;2023-03-16T05:40:13;101632.13;;;-1.42;98.49
29433;BME280;16405;53.964;13.448;2023-03-16T05:42:46;101644.28;;;-1.36;98.61
29433;BME280;16405;53.964;13.448;2023-03-16T05:45:16;101650.38;;;-1.33;98.09
29433;BME280;16405;53.964;13.448;2023-03-16T05:47:42;101654.78;;;-1.27;98.48
29433;BME280;16405;53.964;13.448;2023-03-16T05:50:11;101658.31;;;-1.22;98.29
29433;BME280;16405;53.964;13.448;2023-03-16T05:52:38;101659.31;;;-1.14;98.17
29433;BME280;16405;53.964;13.448;2023-03-16T05:55:14;101660.34;;;-1.02;97.76
29433;BME280;16405;53.964;13.448;2023-03-16T05:57:41;101663.00;;;-0.98;97.99
29433;BME280;16405;53.964;13.448;2023-03-16T06:00:12;101673.72;;;-0.75;97.62
29433;BME280;16405;53.964;13.448;2023-03-16T06:02:44;101670.63;;;-0.49;97.04
29433;BME280;16405;53.964;13.448;2023-03-16T06:05:15;101677.06;;;-0.21;96.41
29433;BME280;16405;53.964;13.448;2023-03-16T06:07:41;101689.09;;;1.56;94.25
29433;BME280;16405;53.964;13.448;2023-03-16T06:10:08;101686.81;;;2.25;91.21
29433;BME280;16405;53.964;13.448;2023-03-16T06:12:34;101686.69;;;1.96;88.61
29433;BME280;16405;53.964;13.448;2023-03-16T06:15:01;101713.50;;;4.31;84.99
29433;BME280;16405;53.964;13.448;2023-03-16T06:17:28;101699.69;;;4.17;80.32
29433;BME280;16405;53.964;13.448;2023-03-16T06:19:56;101700.59;;;4.07;78.18
29433;BME280;16405;53.964;13.448;2023-03-16T06:22:22;101712.16;;;5.05;76.38
29433;BME280;16405;53.964;13.448;2023-03-16T06:24:48;101725.88;;;6.80;71.63
29433;BME280;16405;53.964;13.448;2023-03-16T06:27:14;101730.25;;;8.69;66.41
29433;BME280;16405;53.964;13.448;2023-03-16T06:29:40;101711.22;;;7.26;64.85
29433;BME280;16405;53.964;13.448;2023-03-16T06:32:06;101694.28;;;5.58;68.29
29433;BME280;16405;53.964;13.448;2023-03-16T06:34:39;101715.63;;;6.00;69.80
29433;BME280;16405;53.964;13.448;2023-03-16T06:37:06;101744.84;;;8.81;66.34
29433;BME280;16405;53.964;13.448;2023-03-16T06:39:32;101756.41;;;9.80;62.86
29433;BME280;16405;53.964;13.448;2023-03-16T06:42:07;101774.94;;;12.97;56.73
29433;BME280;16405;53.964;13.448;2023-03-16T06:44:33;101811.91;;;16.09;50.84
29433;BME280;16405;53.964;13.448;2023-03-16T06:46:59;101814.13;;;18.49;45.51
29433;BME280;16405;53.964;13.448;2023-03-16T06:49:25;101834.97;;;20.07;41.89
29433;BME280;16405;53.964;13.448;2023-03-16T06:51:56;101852.38;;;21.38;39.62
29433;BME280;16405;53.964;13.448;2023-03-16T06:54:23;101868.75;;;22.05;37.42
29433;BME280;16405;53.964;13.448;2023-03-16T06:56:49;101883.09;;;23.07;36.85
29433;BME280;16405;53.964;13.448;2023-03-16T06:59:16;101904.03;;;23.80;35.64
29433;BME280;16405;53.964;13.448;2023-03-16T07:01:41;101914.75;;;24.33;34.90
29433;BME280;16405;53.964;13.448;2023-03-16T07:04:16;101920.44;;;24.91;33.58
29433;BME280;16405;53.964;13.448;2023-03-16T07:06:42;101928.69;;;25.40;32.90
29433;BME280;16405;53.964;13.448;2023-03-16T07:09:09;101933.97;;;25.71;32.12
29433;BME280;16405;53.964;13.448;2023-03-16T07:11:35;101950.03;;;26.02;31.92
29433;BME280;16405;53.964;13.448;2023-03-16T07:14:01;101953.28;;;26.15;31.40
29433;BME280;16405;53.964;13.448;2023-03-16T07:16:29;101965.47;;;26.48;30.60
29433;BME280;16405;53.964;13.448;2023-03-16T07:18:56;101970.28;;;26.64;30.38
29433;BME280;16405;53.964;13.448;2023-03-16T07:21:22;101978.31;;;26.84;30.40
29433;BME280;16405;53.964;13.448;2023-03-16T07:23:49;101980.13;;;26.93;29.98
29433;BME280;16405;53.964;13.448;2023-03-16T07:26:16;101993.38;;;26.86;30.05
29433;BME280;16405;53.964;13.448;2023-03-16T07:28:44;101996.59;;;26.62;29.74
29433;BME280;16405;53.964;13.448;2023-03-16T07:31:10;101999.56;;;26.49;30.01
29433;BME280;16405;53.964;13.448;2023-03-16T07:33:37;102009.22;;;26.52;29.85
29433;BME280;16405;53.964;13.448;2023-03-16T07:36:03;102014.22;;;26.47;29.85
29433;BME280;16405;53.964;13.448;2023-03-16T07:38:31;102024.03;;;26.57;29.66
29433;BME280;16405;53.964;13.448;2023-03-16T07:40:59;102026.28;;;26.62;29.50
29433;BME280;16405;53.964;13.448;2023-03-16T07:43:25;102028.28;;;26.60;29.51
29433;BME280;16405;53.964;13.448;2023-03-16T07:45:52;102035.53;;;26.40;29.73
29433;BME280;16405;53.964;13.448;2023-03-16T07:48:18;102043.78;;;26.48;29.69
29433;BME280;16405;53.964;13.448;2023-03-16T07:50:49;102046.34;;;26.59;29.46
29433;BME280;16405;53.964;13.448;2023-03-16T07:53:15;102050.75;;;26.70;29.58
29433;BME280;16405;53.964;13.448;2023-03-16T07:55:42;102065.94;;;26.81;29.50
29433;BME280;16405;53.964;13.448;2023-03-16T07:58:09;102064.06;;;26.82;29.21
29433;BME280;16405;53.964;13.448;2023-03-16T08:00:36;102076.75;;;26.81;29.28
29433;BME280;16405;53.964;13.448;2023-03-16T08:03:02;102065.53;;;26.66;29.04
29433;BME280;16405;53.964;13.448;2023-03-16T08:05:28;102072.63;;;26.67;29.25
29433;BME280;16405;53.964;13.448;2023-03-16T08:07:57;102083.88;;;26.53;29.09
29433;BME280;16405;53.964;13.448;2023-03-16T08:10:24;102079.63;;;26.70;29.11
29433;BME280;16405;53.964;13.448;2023-03-16T08:12:50;102086.41;;;26.84;29.12
29433;BME280;16405;53.964;13.448;2023-03-16T08:15:16;102084.09;;;26.89;29.17
29433;BME280;16405;53.964;13.448;2023-03-16T08:17:42;102095.03;;;26.97;28.84
29433;BME280;16405;53.964;13.448;2023-03-16T08:20:09;102091.94;;;26.92;29.16
29433;BME280;16405;53.964;13.448;2023-03-16T08:22:38;102095.66;;;26.81;28.59
29433;BME280;16405;53.964;13.448;2023-03-16T08:25:06;102104.78;;;26.70;28.91
29433;BME280;16405;53.964;13.448;2023-03-16T08:27:36;102100.59;;;26.17;28.93
29433;BME280;16405;53.964;13.448;2023-03-16T08:30:06;102104.69;;;25.21;29.55
29433;BME280;16405;53.964;13.448;2023-03-16T08:32:33;102101.84;;;24.16;30.16
29433;BME280;16405;53.964;13.448;2023-03-16T08:34:58;102091.88;;;23.73;31.14
29433;BME280;16405;53.964;13.448;2023-03-16T08:37:25;102095.84;;;23.80;30.72
29433;BME280;16405;53.964;13.448;2023-03-16T08:39:52;102096.28;;;23.97;31.07
29433;BME280;16405;53.964;13.448;2023-03-16T08:42:19;102102.50;;;23.97;30.91
29433;BME280;16405;53.964;13.448;2023-03-16T08:44:46;102100.47;;;23.44;30.63
29433;BME280;16405;53.964;13.448;2023-03-16T08:47:12;102107.91;;;23.41;31.63
29433;BME280;16405;53.964;13.448;2023-03-16T08:49:38;102101.69;;;23.29;31.21
29433;BME280;16405;53.964;13.448;2023-03-16T08:52:06;102110.28;;;22.99;31.27
29433;BME280;16405;53.964;13.448;2023-03-16T08:54:35;102106.06;;;22.72;31.44
29433;BME280;16405;53.964;13.448;2023-03-16T08:57:01;102106.34;;;22.45;32.09
29433;BME280;16405;53.964;13.448;2023-03-16T08:59:27;102102.63;;;22.22;32.13
29433;BME280;16405;53.964;13.448;2023-03-16T09:01:54;102114.78;;;21.90;32.06
29433;BME280;16405;53.964;13.448;2023-03-16T09:04:20;102102.72;;;21.46;32.94
29433;BME280;16405;53.964;13.448;2023-03-16T09:06:48;102099.31;;;21.19;33.82
29433;BME280;16405;53.964;13.448;2023-03-16T09:09:16;102100.72;;;20.32;33.82
29433;BME280;16405;53.964;13.448;2023-03-16T09:11:43;102095.44;;;20.17;34.29
29433;BME280;16405;53.964;13.448;2023-03-16T09:14:12;102088.31;;;19.89;35.06
29433;BME280;16405;53.964;13.448;2023-03-16T09:16:40;102086.25;;;19.51;35.09
29433;BME280;16405;53.964;13.448;2023-03-16T09:19:09;102084.06;;;19.15;35.60
29433;BME280;16405;53.964;13.448;2023-03-16T09:21:39;102073.31;;;18.10;36.72
29433;BME280;16405;53.964;13.448;2023-03-16T09:24:05;102070.00;;;17.57;37.67
29433;BME280;16405;53.964;13.448;2023-03-16T09:26:37;102071.44;;;17.31;38.08
29433;BME280;16405;53.964;13.448;2023-03-16T09:29:07;102065.63;;;17.07;39.33
29433;BME280;16405;53.964;13.448;2023-03-16T09:31:33;102064.34;;;16.61;39.60
29433;BME280;16405;53.964;13.448;2023-03-16T09:34:08;102045.97;;;16.22;40.14
29433;BME280;16405;53.964;13.448;2023-03-16T09:36:34;102042.81;;;15.19;41.89
29433;BME280;16405;53.964;13.448;2023-03-16T09:39:00;102034.19;;;14.52;42.60
29433;BME280;16405;53.964;13.448;2023-03-16T09:41:46;102026.34;;;13.85;44.83
29433;BME280;16405;53.964;13.448;2023-03-16T09:47:27;102026.56;;;13.08;46.64
29433;BME280;16405;53.964;13.448;2023-03-16T09:49:58;102009.25;;;12.74;46.38
29433;BME280;16405;53.964;13.448;2023-03-16T09:56:14;102015.44;;;12.23;47.22
29433;BME280;16405;53.964;13.448;2023-03-16T10:05:27;102004.41;;;11.22;49.42
29433;BME280;16405;53.964;13.448;2023-03-16T10:08:15;101994.25;;;11.10;50.41
29433;BME280;16405;53.964;13.448;2023-03-16T10:17:14;102005.81;;;11.04;50.15
29433;BME280;16405;53.964;13.448;2023-03-16T10:19:56;102010.53;;;10.93;50.53
29433;BME280;16405;53.964;13.448;2023-03-16T10:22:30;102000.19;;;10.85;50.64
29433;BME280;16405;53.964;13.448;2023-03-16T10:28:05;102000.59;;;10.70;50.58
29433;BME280;16405;53.964;13.448;2023-03-16T10:30:35;102002.78;;;10.87;49.89
29433;BME280;16405;53.964;13.448;2023-03-16T10:33:45;101993.22;;;10.83;50.73
29433;BME280;16405;53.964;13.448;2023-03-16T10:36:30;101996.72;;;10.83;49.31
29433;BME280;16405;53.964;13.448;2023-03-16T10:39:09;101989.66;;;10.84;50.33
29433;BME280;16405;53.964;13.448;2023-03-16T10:41:39;101989.75;;;10.82;50.58
29433;BME280;16405;53.964;13.448;2023-03-16T10:44:26;101983.75;;;10.43;50.32
29433;BME280;16405;53.964;13.448;2023-03-16T10:47:02;101975.06;;;10.39;51.13
29433;BME280;16405;53.964;13.448;2023-03-16T10:49:47;101979.44;;;10.40;51.73
29433;BME280;16405;53.964;13.448;2023-03-16T10:52:47;101979.91;;;10.56;51.99
29433;BME280;16405;53.964;13.448;2023-03-16T10:55:28;101984.75;;;10.72;51.78
29433;BME280;16405;53.964;13.448;2023-03-16T10:57:59;101988.69;;;10.88;51.90
29433;BME280;16405;53.964;13.448;2023-03-16T11:00:41;101986.53;;;11.02;51.00
29433;BME280;16405;53.964;13.448;2023-03-16T11:03:38;101986.75;;;10.95;50.72
29433;BME280;16405;53.964;13.448;2023-03-16T11:06:20;101979.03;;;10.88;50.68
29433;BME280;16405;53.964;13.448;2023-03-16T11:08:51;101980.56;;;10.96;51.01
29433;BME280;16405;53.964;13.448;2023-03-16T11:11:30;101969.03;;;10.68;50.84
29433;BME280;16405;53.964;13.448;2023-03-16T11:14:02;101974.63;;;10.56;50.24
29433;BME280;16405;53.964;13.448;2023-03-16T11:16:45;101964.53;;;10.39;50.02
29433;BME280;16405;53.964;13.448;2023-03-16T11:19:44;101965.69;;;10.27;49.99
29433;BME280;16405;53.964;13.448;2023-03-16T11:22:22;101957.53;;;10.38;49.94
29433;BME280;16405;53.964;13.448;2023-03-16T11:25:42;101955.91;;;9.97;49.67
29433;BME280;16405;53.964;13.448;2023-03-16T11:28:37;101954.19;;;10.32;50.45
29433;BME280;16405;53.964;13.448;2023-03-16T11:31:41;101946.13;;;10.39;50.03
29433;BME280;16405;53.964;13.448;2023-03-16T11:34:27;101945.97;;;10.45;50.86
29433;BME280;16405;53.964;13.448;2023-03-16T11:45:02;101931.44;;;10.31;51.67
29433;BME280;16405;53.964;13.448;2023-03-16T11:48:02;101933.00;;;10.36;51.09
29433;BME280;16405;53.964;13.448;2023-03-16T11:51:00;101936.63;;;10.32;50.69
29433;BME280;16405;53.964;13.448;2023-03-16T11:56:45;101928.88;;;10.26;51.93
29433;BME280;16405;53.964;13.448;2023-03-16T12:11:06;101895.00;;;9.78;51.44
29433;BME280;16405;53.964;13.448;2023-03-16T12:13:53;101894.56;;;9.59;50.95
29433;BME280;16405;53.964;13.448;2023-03-16T12:16:48;101887.97;;;9.41;51.12
29433;BME280;16405;53.964;13.448;2023-03-16T12:19:48;101885.16;;;9.11;51.94
29433;BME280;16405;53.964;13.448;2023-03-16T12:22:21;101874.59;;;9.14;52.28
29433;BME280;16405;53.964;13.448;2023-03-16T12:24:50;101878.25;;;9.07;52.78
29433;BME280;16405;53.964;13.448;2023-03-16T12:27:30;101878.56;;;9.31;52.18
29433;BME280;16405;53.964;13.448;2023-03-16T12:35:57;101881.66;;;9.50;50.46
29433;BME280;16405;53.964;13.448;2023-03-16T12:38:51;101887.56;;;9.59;49.61
29433;BME280;16405;53.964;13.448;2023-03-16T12:44:56;101867.19;;;9.30;48.54
29433;BME280;16405;53.964;13.448;2023-03-16T12:47:54;101860.56;;;8.73;48.45
29433;BME280;16405;53.964;13.448;2023-03-16T12:50:21;101863.47;;;8.59;49.10
29433;BME280;16405;53.964;13.448;2023-03-16T12:52:50;101864.75;;;8.83;50.65
29433;BME280;16405;53.964;13.448;2023-03-16T12:55:17;101858.47;;;8.91;51.52
29433;BME280;16405;53.964;13.448;2023-03-16T12:57:49;101847.91;;;8.50;52.15
29433;BME280;16405;53.964;13.448;2023-03-16T13:00:37;101844.13;;;8.63;51.71
29433;BME280;16405;53.964;13.448;2023-03-16T13:03:14;101829.94;;;8.72;52.37
29433;BME280;16405;53.964;13.448;2023-03-16T13:05:53;101828.69;;;8.50;52.83
29433;BME280;16405;53.964;13.448;2023-03-16T13:08:20;101828.88;;;8.37;51.14
29433;BME280;16405;53.964;13.448;2023-03-16T13:11:19;101829.25;;;8.19;51.85
29433;BME280;16405;53.964;13.448;2023-03-16T13:14:06;101824.25;;;8.53;52.31
29433;BME280;16405;53.964;13.448;2023-03-16T13:16:36;101826.50;;;8.70;52.21
29433;BME280;16405;53.964;13.448;2023-03-16T13:19:27;101822.88;;;8.76;52.76
29433;BME280;16405;53.964;13.448;2023-03-16T13:22:18;101812.94;;;8.50;52.46
29433;BME280;16405;53.964;13.448;2023-03-16T13:27:51;101814.81;;;8.40;51.97
29433;BME280;16405;53.964;13.448;2023-03-16T13:30:39;101821.25;;;8.70;52.67
29433;BME280;16405;53.964;13.448;2023-03-16T13:33:21;101812.63;;;8.63;52.21
29433;BME280;16405;53.964;13.448;2023-03-16T13:35:53;101809.44;;;8.90;51.80
29433;BME280;16405;53.964;13.448;2023-03-16T13:38:29;101807.22;;;9.12;51.07
29433;BME280;16405;53.964;13.448;2023-03-16T13:41:04;101810.56;;;8.79;50.90
29433;BME280;16405;53.964;13.448;2023-03-16T13:43:40;101814.88;;;8.82;50.59
29433;BME280;16405;53.964;13.448;2023-03-16T13:46:19;101818.31;;;8.84;50.78
29433;BME280;16405;53.964;13.448;2023-03-16T13:48:48;101824.56;;;9.17;50.45
29433;BME280;16405;53.964;13.448;2023-03-16T13:51:17;101827.63;;;9.36;49.16
29433;BME280;16405;53.964;13.448;2023-03-16T13:53:53;101831.53;;;9.57;48.91
29433;BME280;16405;53.964;13.448;2023-03-16T13:56:31;101835.44;;;9.75;48.26
29433;BME280;16405;53.964;13.448;2023-03-16T13:58:57;101839.34;;;9.93;47.86
29433;BME280;16405;53.964;13.448;2023-03-16T14:01:33;101824.31;;;9.28;46.71
29433;BME280;16405;53.964;13.448;2023-03-16T14:04:02;101818.06;;;9.34;47.58
29433;BME280;16405;53.964;13.448;2023-03-16T14:06:33;101829.56;;;9.65;48.44
29433;BME280;16405;53.964;13.448;2023-03-16T14:09:04;101827.25;;;9.88;48.39
29433;BME280;16405;53.964;13.448;2023-03-16T14:11:31;101827.13;;;9.92;46.91
29433;BME280;16405;53.964;13.448;2023-03-16T14:14:14;101825.16;;;10.00;46.32
29433;BME280;16405;53.964;13.448;2023-03-16T14:16:40;101821.72;;;9.97;45.04